createdAt,value
2023-05-09T00:01:47.735Z,3.13
2023-05-09T00:04:16.429Z,2.88
2023-05-09T00:06:44.044Z,3.30
2023-05-09T00:09:11.461Z,3.00
2023-05-09T00:11:38.984Z,2.70
2023-05-09T00:14:06.935Z,2.45
2023-05-09T00:16:34.196Z,2.05
2023-05-09T00:19:01.560Z,2.60
2023-05-09T00:21:28.740Z,2.58
2023-05-09T00:23:56.003Z,2.83
2023-05-09T00:26:23.866Z,2.47
2023-05-09T00:28:51.081Z,2.65
2023-05-09T00:31:18.324Z,2.55
2023-05-09T00:33:45.554Z,2.22
2023-05-09T00:36:12.726Z,2.20
2023-05-09T00:38:39.876Z,2.10
2023-05-09T00:41:07.093Z,2.00
2023-05-09T00:43:34.258Z,2.25
2023-05-09T00:46:01.662Z,2.30
2023-05-09T00:48:28.980Z,2.25
2023-05-09T00:50:56.700Z,2.22
2023-05-09T00:53:25.622Z,2.58
2023-05-09T00:55:53.815Z,2.08
2023-05-09T00:58:21.399Z,2.08
2023-05-09T01:00:48.841Z,1.83
2023-05-09T01:03:16.425Z,1.90
2023-05-09T01:06:03.465Z,1.90
2023-05-09T01:08:44.208Z,2.22
2023-05-09T01:11:13.312Z,2.10
2023-05-09T01:14:21.951Z,2.10
2023-05-09T01:16:55.913Z,2.30
2023-05-09T01:19:57.125Z,2.20
2023-05-09T01:22:32.269Z,2.10
2023-05-09T01:25:15.634Z,2.20
2023-05-09T01:27:58.268Z,2.00
2023-05-09T01:30:26.974Z,2.40
2023-05-09T01:32:59.948Z,2.30
2023-05-09T01:35:29.481Z,2.08
2023-05-09T01:37:58.403Z,2.22
2023-05-09T01:40:29.573Z,2.17
2023-05-09T01:43:02.109Z,2.30
2023-05-09T01:45:30.245Z,2.30
2023-05-09T01:47:58.890Z,2.38
2023-05-09T01:50:29.609Z,2.22
2023-05-09T01:55:27.302Z,2.10
2023-05-09T01:57:55.175Z,2.53
2023-05-09T02:00:24.076Z,2.75
2023-05-09T02:02:53.272Z,2.30
2023-05-09T02:05:22.990Z,2.00
2023-05-09T02:07:50.402Z,2.20
2023-05-09T02:10:18.092Z,2.00
2023-05-09T02:12:45.393Z,2.13
2023-05-09T02:15:12.809Z,2.50
2023-05-09T02:17:40.120Z,2.30
2023-05-09T02:20:10.129Z,2.35
2023-05-09T02:22:38.072Z,2.50
2023-05-09T02:25:07.528Z,2.17
2023-05-09T02:27:35.425Z,2.35
2023-05-09T02:30:07.627Z,2.60
2023-05-09T02:32:36.682Z,2.30
2023-05-09T02:35:04.882Z,2.15
2023-05-09T02:37:33.161Z,2.40
2023-05-09T02:40:00.637Z,2.33
2023-05-09T02:42:30.302Z,2.33
2023-05-09T02:44:57.446Z,2.00
2023-05-09T02:47:25.945Z,2.30
2023-05-09T02:49:53.115Z,2.50
2023-05-09T02:52:20.240Z,2.35
2023-05-09T02:54:48.529Z,2.20
2023-05-09T02:57:15.952Z,2.10
2023-05-09T02:59:43.183Z,2.20
2023-05-09T03:02:10.425Z,2.20
2023-05-09T03:04:37.771Z,1.98
2023-05-09T03:07:05.268Z,2.30
2023-05-09T03:09:32.509Z,2.63
2023-05-09T03:11:59.626Z,2.05
2023-05-09T03:14:26.816Z,2.40
2023-05-09T03:16:54.117Z,2.00
2023-05-09T03:19:21.383Z,1.92
2023-05-09T03:21:48.632Z,2.03
2023-05-09T03:24:16.129Z,2.10
2023-05-09T03:26:43.339Z,1.98
2023-05-09T03:29:10.584Z,2.13
2023-05-09T03:31:37.812Z,2.15
2023-05-09T03:34:04.992Z,2.13
2023-05-09T03:36:32.523Z,1.90
2023-05-09T03:38:59.842Z,2.15
2023-05-09T03:41:27.091Z,2.00
2023-05-09T03:43:54.291Z,1.88
2023-05-09T03:46:21.540Z,2.20
2023-05-09T03:48:48.874Z,2.10
2023-05-09T03:51:16.239Z,2.20
2023-05-09T03:53:46.375Z,1.73
2023-05-09T03:56:14.410Z,2.67
2023-05-09T03:58:41.637Z,2.40
2023-05-09T04:01:08.971Z,2.13
2023-05-09T04:03:37.977Z,2.08
2023-05-09T04:06:06.117Z,2.33
2023-05-09T04:08:33.562Z,2.58
2023-05-09T04:11:00.791Z,2.20
2023-05-09T04:13:30.187Z,1.90
2023-05-09T04:15:57.479Z,2.20
2023-05-09T04:18:24.818Z,2.40
2023-05-09T04:20:52.127Z,2.10
2023-05-09T04:23:19.602Z,2.58
2023-05-09T04:25:46.772Z,2.28
2023-05-09T04:28:13.943Z,2.13
2023-05-09T04:30:41.086Z,2.42
2023-05-09T04:33:08.333Z,2.28
2023-05-09T04:35:35.570Z,2.35
2023-05-09T04:38:03.078Z,2.45
2023-05-09T04:40:30.938Z,2.38
2023-05-09T04:42:59.143Z,2.28
2023-05-09T04:45:26.378Z,1.90
2023-05-09T04:47:53.590Z,2.00
2023-05-09T04:50:21.017Z,2.40
2023-05-09T04:52:48.415Z,2.15
2023-05-09T04:55:16.144Z,2.13
2023-05-09T04:57:43.687Z,2.20
2023-05-09T05:00:12.210Z,2.60
2023-05-09T05:02:39.488Z,2.40
2023-05-09T05:05:12.176Z,2.20
2023-05-09T05:07:40.033Z,1.98
2023-05-09T05:10:07.882Z,2.22
2023-05-09T05:12:35.082Z,2.40
2023-05-09T05:15:02.302Z,2.45
2023-05-09T05:17:29.864Z,2.10
2023-05-09T05:19:57.128Z,2.35
2023-05-09T05:22:24.547Z,2.08
2023-05-09T05:24:51.709Z,2.47
2023-05-09T05:27:18.891Z,2.30
2023-05-09T05:29:46.118Z,2.15
2023-05-09T05:32:13.288Z,2.20
2023-05-09T05:34:40.479Z,2.42
2023-05-09T05:37:07.815Z,2.15
2023-05-09T05:39:34.966Z,2.15
2023-05-09T05:42:02.223Z,2.30
2023-05-09T05:44:29.537Z,2.17
2023-05-09T05:46:56.668Z,2.05
2023-05-09T05:49:25.327Z,1.92
2023-05-09T05:51:52.445Z,1.98
2023-05-09T05:54:19.599Z,2.00
2023-05-09T05:56:46.790Z,1.88
2023-05-09T05:59:13.997Z,1.90
2023-05-09T06:01:41.599Z,1.95
2023-05-09T06:04:08.917Z,1.50
2023-05-09T06:06:36.256Z,1.35
2023-05-09T06:09:03.523Z,1.58
2023-05-09T06:11:30.670Z,1.85
2023-05-09T06:13:57.834Z,1.80
2023-05-09T06:16:25.030Z,1.48
2023-05-09T06:18:53.435Z,1.13
2023-05-09T06:21:22.176Z,1.58
2023-05-09T06:24:04.976Z,1.95
2023-05-09T06:26:35.656Z,1.70
2023-05-09T06:29:03.587Z,1.92
2023-05-09T06:31:31.024Z,1.55
2023-05-09T06:33:58.373Z,1.83
2023-05-09T06:36:25.582Z,1.25
2023-05-09T06:38:52.772Z,1.33
2023-05-09T06:41:19.936Z,1.25
2023-05-09T06:43:47.998Z,1.52
2023-05-09T06:46:15.212Z,1.60
2023-05-09T06:48:42.396Z,1.38
2023-05-09T06:51:09.619Z,1.33
2023-05-09T06:53:36.752Z,1.40
2023-05-09T06:56:04.633Z,1.48
2023-05-09T06:58:31.953Z,1.52
2023-05-09T07:00:59.180Z,1.38
2023-05-09T07:03:26.414Z,1.20
2023-05-09T07:05:55.083Z,1.55
2023-05-09T07:08:22.204Z,1.60
2023-05-09T07:10:49.296Z,1.65
2023-05-09T07:13:16.715Z,1.40
2023-05-09T07:15:44.032Z,1.48
2023-05-09T07:18:11.557Z,1.23
2023-05-09T07:20:38.841Z,1.50
2023-05-09T07:23:06.252Z,1.27
2023-05-09T07:25:33.456Z,1.55
2023-05-09T07:28:00.740Z,1.17
2023-05-09T07:30:27.874Z,1.63
2023-05-09T07:32:55.106Z,1.70
2023-05-09T07:35:22.359Z,1.48
2023-05-09T07:37:49.491Z,1.25
2023-05-09T07:40:17.016Z,1.40
2023-05-09T07:42:50.134Z,1.23
2023-05-09T07:45:18.829Z,1.15
2023-05-09T07:47:47.199Z,1.80
2023-05-09T07:50:14.271Z,1.33
2023-05-09T07:52:41.472Z,1.50
2023-05-09T07:55:08.955Z,1.60
2023-05-09T07:57:36.153Z,1.30
2023-05-09T08:00:03.790Z,1.45
2023-05-09T08:02:31.327Z,1.20
2023-05-09T08:04:58.479Z,1.40
2023-05-09T08:07:26.230Z,1.70
2023-05-09T08:09:53.373Z,1.42
2023-05-09T08:12:20.547Z,1.50
2023-05-09T08:14:47.734Z,1.20
2023-05-09T08:17:14.843Z,1.40
2023-05-09T08:19:42.036Z,1.55
2023-05-09T08:22:09.150Z,1.55
2023-05-09T08:24:36.333Z,0.90
2023-05-09T08:27:03.535Z,1.33
2023-05-09T08:29:31.360Z,1.10
2023-05-09T08:31:58.668Z,1.40
2023-05-09T08:34:26.469Z,1.58
2023-05-09T08:36:53.473Z,1.35
2023-05-09T08:39:20.633Z,1.27
2023-05-09T08:41:47.819Z,1.20
2023-05-09T08:44:15.081Z,1.35
2023-05-09T08:46:44.726Z,1.33
2023-05-09T08:49:12.143Z,1.70
2023-05-09T08:51:40.334Z,1.67
2023-05-09T08:54:08.050Z,2.35
2023-05-09T08:56:36.171Z,1.50
2023-05-09T08:59:05.949Z,1.65
2023-05-09T09:01:36.134Z,1.30
2023-05-09T09:04:06.683Z,1.90
2023-05-09T09:09:02.853Z,1.42
2023-05-09T09:11:31.286Z,1.73
2023-05-09T09:14:02.336Z,1.20
2023-05-09T09:16:29.943Z,1.17
2023-05-09T09:18:59.018Z,1.45
2023-05-09T09:21:26.591Z,1.60
2023-05-09T09:23:56.867Z,1.30
2023-05-09T09:26:25.020Z,1.90
2023-05-09T09:28:52.160Z,1.65
2023-05-09T09:31:21.217Z,1.98
2023-05-09T09:33:48.951Z,1.30
2023-05-09T09:36:16.469Z,1.90
2023-05-09T09:38:44.887Z,1.58
2023-05-09T09:41:13.711Z,1.90
2023-05-09T09:43:46.416Z,1.70
2023-05-09T09:46:17.373Z,1.98
2023-05-09T09:48:51.449Z,1.80
2023-05-09T09:51:19.856Z,1.30
2023-05-09T09:53:47.382Z,1.80
2023-05-09T09:56:14.585Z,1.63
2023-05-09T09:58:41.700Z,1.40
2023-05-09T10:01:17.020Z,1.63
2023-05-09T10:03:48.348Z,1.50
2023-05-09T10:06:17.043Z,1.40
2023-05-09T10:08:49.379Z,1.15
2023-05-09T10:11:16.756Z,1.75
2023-05-09T10:13:44.762Z,1.90
2023-05-09T10:16:13.136Z,2.38
2023-05-09T10:18:43.632Z,2.28
2023-05-09T10:23:45.697Z,1.67
2023-05-09T10:26:27.753Z,1.90
2023-05-09T10:29:00.575Z,2.00
2023-05-09T10:31:29.580Z,1.48
2023-05-09T10:33:57.412Z,1.73
2023-05-09T10:36:25.166Z,1.60
2023-05-09T10:38:55.376Z,1.80
2023-05-09T10:41:23.946Z,1.40
2023-05-09T10:43:51.591Z,1.38
2023-05-09T10:46:19.218Z,1.60
2023-05-09T10:48:48.242Z,1.58
2023-05-09T10:51:16.638Z,1.48
2023-05-09T10:53:45.469Z,1.45
2023-05-09T10:56:32.845Z,1.80
2023-05-09T10:59:00.680Z,1.40
2023-05-09T11:01:37.532Z,1.33
2023-05-09T11:04:16.860Z,1.23
2023-05-09T11:06:51.277Z,1.60
2023-05-09T11:09:35.112Z,1.55
2023-05-09T11:12:10.054Z,1.55
2023-05-09T11:14:45.738Z,1.45
2023-05-09T11:17:33.195Z,1.55
2023-05-09T11:20:03.737Z,1.40
2023-05-09T11:22:37.832Z,1.80
2023-05-09T11:25:09.789Z,1.50
2023-05-09T11:27:52.588Z,2.08
2023-05-09T11:30:20.848Z,2.00
2023-05-09T11:32:52.456Z,2.70
2023-05-09T11:35:22.264Z,2.20
2023-05-09T11:37:52.644Z,1.80
2023-05-09T11:40:21.444Z,1.85
2023-05-09T11:42:55.437Z,1.75
2023-05-09T11:45:27.198Z,1.38
2023-05-09T11:47:54.821Z,1.83
2023-05-09T11:50:22.263Z,1.65
2023-05-09T11:52:50.091Z,2.05
2023-05-09T11:55:19.944Z,1.10
2023-05-09T11:57:52.069Z,1.67
2023-05-09T12:00:20.759Z,1.50
2023-05-09T12:02:48.404Z,1.02
2023-05-09T12:05:20.585Z,1.33
2023-05-09T12:07:48.733Z,1.40
2023-05-09T12:10:19.355Z,1.92
2023-05-09T12:15:15.759Z,2.10
2023-05-09T12:17:45.009Z,2.00
2023-05-09T12:20:12.947Z,1.75
2023-05-09T12:22:43.827Z,1.38
2023-05-09T12:25:12.384Z,1.50
2023-05-09T12:27:41.547Z,1.70
2023-05-09T12:30:14.349Z,1.50
2023-05-09T12:32:42.893Z,1.58
2023-05-09T12:35:11.395Z,1.38
2023-05-09T12:37:39.455Z,1.80
2023-05-09T12:40:13.261Z,1.70
2023-05-09T12:42:44.470Z,1.50
2023-05-09T12:45:12.111Z,1.55
2023-05-09T12:47:41.962Z,1.60
2023-05-09T12:50:14.772Z,2.03
2023-05-09T12:53:01.407Z,1.70
2023-05-09T12:55:31.461Z,1.70
2023-05-09T12:58:00.799Z,1.73
2023-05-09T13:00:28.657Z,1.90
2023-05-09T13:02:56.248Z,1.52
2023-05-09T13:05:24.506Z,2.00
2023-05-09T13:07:56.582Z,1.70
2023-05-09T13:10:26.317Z,2.00
2023-05-09T13:12:53.762Z,1.40
2023-05-09T13:15:26.958Z,1.80
2023-05-09T13:17:54.541Z,2.03
2023-05-09T13:20:21.827Z,1.70
2023-05-09T13:22:49.148Z,1.50
2023-05-09T13:25:17.117Z,1.58
2023-05-09T13:27:44.278Z,1.48
2023-05-09T13:30:13.204Z,1.50
2023-05-09T13:32:40.741Z,1.70
2023-05-09T13:35:08.370Z,1.50
2023-05-09T13:37:36.383Z,1.98
2023-05-09T13:40:04.532Z,1.80
2023-05-09T13:42:33.552Z,2.05
2023-05-09T13:45:01.135Z,1.80
2023-05-09T13:47:28.330Z,1.63
2023-05-09T13:49:55.502Z,1.70
2023-05-09T13:52:23.414Z,1.67
2023-05-09T13:54:50.546Z,1.60
2023-05-09T13:57:17.762Z,2.05
2023-05-09T13:59:44.922Z,1.60
2023-05-09T14:02:12.327Z,1.60
2023-05-09T14:04:39.699Z,1.70
2023-05-09T14:07:07.065Z,1.67
2023-05-09T14:09:40.270Z,1.33
2023-05-09T14:12:08.164Z,1.70
2023-05-09T14:14:35.391Z,1.48
2023-05-09T14:17:03.054Z,1.90
2023-05-09T14:19:33.224Z,1.80
2023-05-09T14:22:00.433Z,1.63
2023-05-09T14:24:30.999Z,1.60
2023-05-09T14:29:25.345Z,1.60
2023-05-09T14:31:52.559Z,1.45
2023-05-09T14:34:19.892Z,1.80
2023-05-09T14:36:47.138Z,1.60
2023-05-09T14:39:14.349Z,1.63
2023-05-09T14:41:41.538Z,1.50
2023-05-09T14:44:08.798Z,1.58
2023-05-09T14:46:37.188Z,1.40
2023-05-09T14:49:04.485Z,1.60
2023-05-09T14:51:33.495Z,1.52
2023-05-09T14:54:03.857Z,1.40
2023-05-09T14:56:31.836Z,1.40
2023-05-09T14:58:58.993Z,1.35
2023-05-09T15:01:26.264Z,1.50
2023-05-09T15:03:53.639Z,1.58
2023-05-09T15:06:20.924Z,1.52
2023-05-09T15:08:48.172Z,1.67
2023-05-09T15:11:15.296Z,1.45
2023-05-09T15:13:42.503Z,1.65
2023-05-09T15:16:09.822Z,2.03
2023-05-09T15:18:37.208Z,1.50
2023-05-09T15:21:04.764Z,1.60
2023-05-09T15:23:32.029Z,1.45
2023-05-09T15:25:59.400Z,1.60
2023-05-09T15:28:26.705Z,1.60
2023-05-09T15:30:54.142Z,1.60
2023-05-09T15:33:21.506Z,1.55
2023-05-09T15:35:50.258Z,1.33
2023-05-09T15:38:17.547Z,1.45
2023-05-09T15:40:44.816Z,1.40
2023-05-09T15:43:13.220Z,1.70
2023-05-09T15:45:45.795Z,1.30
2023-05-09T15:48:14.082Z,1.17
2023-05-09T15:50:45.174Z,1.52
2023-05-09T15:53:12.413Z,1.70
2023-05-09T15:55:39.636Z,1.42
2023-05-09T15:58:08.757Z,1.60
2023-05-09T16:00:35.976Z,1.60
2023-05-09T16:03:03.236Z,1.80
2023-05-09T16:05:30.510Z,1.58
2023-05-09T16:07:57.795Z,1.60
2023-05-09T16:10:25.099Z,1.75
2023-05-09T16:12:52.482Z,1.38
2023-05-09T16:15:19.703Z,1.50
2023-05-09T16:17:46.800Z,1.42
2023-05-09T16:20:14.556Z,1.58
2023-05-09T16:22:42.236Z,1.65
2023-05-09T16:25:09.940Z,1.60
2023-05-09T16:27:37.274Z,1.40
2023-05-09T16:30:05.770Z,1.40
2023-05-09T16:32:33.009Z,1.77
2023-05-09T16:35:00.154Z,1.60
2023-05-09T16:37:29.325Z,1.70
2023-05-09T16:39:56.754Z,1.52
2023-05-09T16:42:23.927Z,1.60
2023-05-09T16:44:51.212Z,1.60
2023-05-09T16:47:18.424Z,1.52
2023-05-09T16:49:45.589Z,1.77
2023-05-09T16:52:12.894Z,1.60
2023-05-09T16:54:40.268Z,1.42
2023-05-09T16:57:07.554Z,1.60
2023-05-09T16:59:35.042Z,1.52
2023-05-09T17:02:02.374Z,1.48
2023-05-09T17:04:29.614Z,1.38
2023-05-09T17:06:56.822Z,1.40
2023-05-09T17:09:24.640Z,1.45
2023-05-09T17:11:52.178Z,1.45
2023-05-09T17:14:19.866Z,1.60
2023-05-09T17:16:47.391Z,1.67
2023-05-09T17:19:16.176Z,1.52
2023-05-09T17:21:43.530Z,1.65
2023-05-09T17:24:10.641Z,1.48
2023-05-09T17:26:39.076Z,1.23
2023-05-09T17:29:06.282Z,1.50
2023-05-09T17:31:33.532Z,1.60
2023-05-09T17:34:01.740Z,1.55
2023-05-09T17:36:28.980Z,1.50
2023-05-09T17:38:56.293Z,1.67
2023-05-09T17:41:24.583Z,1.35
2023-05-09T17:43:56.442Z,1.35
2023-05-09T17:46:24.088Z,1.83
2023-05-09T17:48:51.686Z,1.40
2023-05-09T17:51:18.873Z,1.50
2023-05-09T17:53:46.942Z,1.67
2023-05-09T17:56:14.153Z,1.60
2023-05-09T17:58:41.275Z,1.60
2023-05-09T18:01:09.696Z,1.42
2023-05-09T18:03:36.985Z,1.88
2023-05-09T18:06:04.728Z,1.75
2023-05-09T18:08:31.786Z,1.60
2023-05-09T18:10:59.194Z,1.60
2023-05-09T18:13:26.604Z,1.80
2023-05-09T18:15:59.667Z,1.67
2023-05-09T18:18:32.667Z,1.58
2023-05-09T18:20:59.891Z,1.55
2023-05-09T18:23:27.927Z,1.45
2023-05-09T18:25:55.323Z,1.88
2023-05-09T18:28:25.489Z,1.70
2023-05-09T18:30:54.842Z,1.55
2023-05-09T18:33:28.552Z,1.63
2023-05-09T18:35:56.061Z,1.73
2023-05-09T18:38:23.931Z,1.60
2023-05-09T18:40:52.393Z,1.83
2023-05-09T18:43:21.669Z,1.50
2023-05-09T18:45:49.456Z,1.50
2023-05-09T18:48:17.299Z,1.65
2023-05-09T18:50:45.019Z,1.40
2023-05-09T18:53:12.658Z,1.67
2023-05-09T18:55:40.377Z,1.63
2023-05-09T18:58:07.607Z,2.17
2023-05-09T19:00:35.905Z,1.63
2023-05-09T19:03:03.144Z,1.70
2023-05-09T19:05:30.655Z,1.70
2023-05-09T19:07:57.852Z,1.42
2023-05-09T19:10:25.085Z,1.80
2023-05-09T19:12:52.460Z,1.80
2023-05-09T19:15:20.071Z,1.88
2023-05-09T19:17:47.235Z,1.50
2023-05-09T19:20:14.546Z,1.70
2023-05-09T19:22:45.790Z,1.67
2023-05-09T19:25:13.011Z,1.98
2023-05-09T19:27:40.102Z,1.70
2023-05-09T19:30:07.963Z,1.75
2023-05-09T19:32:35.212Z,1.52
2023-05-09T19:35:02.437Z,1.77
2023-05-09T19:37:29.715Z,1.40
2023-05-09T19:39:56.803Z,1.52
2023-05-09T19:42:23.930Z,1.60
2023-05-09T19:44:52.670Z,1.55
2023-05-09T19:47:20.547Z,1.77
2023-05-09T19:49:47.668Z,1.90
2023-05-09T19:52:14.821Z,1.83
2023-05-09T19:54:42.433Z,1.70
2023-05-09T19:57:10.707Z,2.05
2023-05-09T19:59:37.875Z,2.00
2023-05-09T20:02:05.160Z,1.60
2023-05-09T20:04:35.497Z,1.85
2023-05-09T20:07:03.387Z,2.10
2023-05-09T20:09:32.468Z,1.92
2023-05-09T20:12:02.083Z,2.40
2023-05-09T20:14:29.373Z,2.13
2023-05-09T20:16:57.130Z,2.20
2023-05-09T20:19:24.427Z,2.60
2023-05-09T20:21:51.619Z,2.10
2023-05-09T20:24:18.663Z,2.05
2023-05-09T20:26:45.819Z,2.10
2023-05-09T20:29:13.018Z,2.08
2023-05-09T20:31:40.335Z,2.10
2023-05-09T20:34:10.824Z,2.40
2023-05-09T20:39:05.599Z,2.45
2023-05-09T20:41:35.009Z,2.60
2023-05-09T20:44:04.447Z,3.00
2023-05-09T20:46:31.682Z,3.00
2023-05-09T20:48:58.833Z,3.17
2023-05-09T20:51:26.162Z,2.30
2023-05-09T20:53:53.213Z,2.10
2023-05-09T20:56:20.275Z,1.85
2023-05-09T20:59:04.174Z,2.20
2023-05-09T21:01:34.503Z,2.05
2023-05-09T21:04:01.897Z,2.03
2023-05-09T21:06:29.163Z,2.20
2023-05-09T21:08:56.385Z,2.38
2023-05-09T21:11:23.641Z,2.30
2023-05-09T21:13:50.944Z,2.67
2023-05-09T21:16:18.190Z,2.63
2023-05-09T21:18:45.351Z,2.85
2023-05-09T21:21:12.626Z,3.03
2023-05-09T21:23:39.738Z,2.63
2023-05-09T21:26:06.883Z,2.28
2023-05-09T21:28:34.016Z,2.45
2023-05-09T21:31:01.919Z,2.00
2023-05-09T21:33:29.812Z,2.30
2023-05-09T21:35:57.413Z,2.15
2023-05-09T21:38:24.453Z,2.70
2023-05-09T21:40:51.818Z,2.45
2023-05-09T21:43:19.366Z,2.22
2023-05-09T21:45:46.590Z,2.20
2023-05-09T21:48:13.994Z,1.70
2023-05-09T21:50:43.837Z,1.45
2023-05-09T21:53:11.040Z,1.60
2023-05-09T21:55:38.231Z,1.70
2023-05-09T21:58:05.517Z,1.83
2023-05-09T22:00:32.738Z,2.13
2023-05-09T22:02:59.963Z,1.90
2023-05-09T22:05:27.237Z,2.17
2023-05-09T22:07:54.376Z,2.00
2023-05-09T22:10:21.534Z,2.10
2023-05-09T22:12:48.765Z,1.92
2023-05-09T22:15:15.926Z,2.30
2023-05-09T22:17:43.160Z,2.20
2023-05-09T22:20:10.973Z,2.00
2023-05-09T22:23:02.817Z,1.90
2023-05-09T22:25:29.976Z,1.83
2023-05-09T22:27:57.272Z,1.70
2023-05-09T22:30:25.028Z,1.88
2023-05-09T22:32:52.226Z,1.90
2023-05-09T22:35:19.436Z,1.70
2023-05-09T22:37:46.829Z,2.00
2023-05-09T22:40:14.255Z,1.80
2023-05-09T22:42:41.497Z,1.83
2023-05-09T22:45:09.124Z,1.85
2023-05-09T22:47:36.840Z,1.80
2023-05-09T22:50:04.319Z,1.85
2023-05-09T22:52:31.813Z,2.33
2023-05-09T22:54:59.058Z,1.90
2023-05-09T22:57:26.325Z,1.85
2023-05-09T22:59:54.048Z,2.33
2023-05-09T23:02:21.474Z,2.10
2023-05-09T23:04:48.828Z,2.20
2023-05-09T23:07:16.402Z,2.20
2023-05-09T23:09:43.726Z,1.70
2023-05-09T23:12:10.994Z,2.10
2023-05-09T23:14:38.271Z,2.30
2023-05-09T23:17:05.479Z,2.08
2023-05-09T23:19:33.097Z,1.80
2023-05-09T23:22:00.267Z,2.03
2023-05-09T23:24:27.540Z,2.03
2023-05-09T23:26:54.789Z,2.10
2023-05-09T23:29:22.218Z,1.98
2023-05-09T23:31:49.760Z,2.00
2023-05-09T23:34:17.676Z,2.15
2023-05-09T23:36:44.814Z,2.17
2023-05-09T23:39:12.354Z,2.08
2023-05-09T23:41:39.533Z,2.28
2023-05-09T23:44:07.854Z,2.15
2023-05-09T23:46:35.168Z,2.03
2023-05-09T23:49:02.362Z,2.08
2023-05-09T23:51:29.515Z,2.00
2023-05-09T23:53:57.298Z,2.30
2023-05-09T23:56:25.381Z,2.30
2023-05-09T23:58:52.673Z,2.00
